createdAt,value
2018-08-17T00:00:33.231Z,82.60
2018-08-17T00:03:01.819Z,82.70
2018-08-17T00:05:30.243Z,82.80
2018-08-17T00:07:58.646Z,82.90
2018-08-17T00:10:27.811Z,83.00
2018-08-17T00:12:56.191Z,83.10
2018-08-17T00:15:24.744Z,83.20
2018-08-17T00:17:53.203Z,83.20
2018-08-17T00:20:21.643Z,83.30
2018-08-17T00:22:50.153Z,83.30
2018-08-17T00:25:18.526Z,83.20
2018-08-17T00:27:46.918Z,83.10
2018-08-17T00:30:15.291Z,83.00
2018-08-17T00:32:43.667Z,83.00
2018-08-17T00:35:12.047Z,83.10
2018-08-17T00:37:40.422Z,83.10
2018-08-17T00:40:08.823Z,83.10
2018-08-17T00:42:37.299Z,83.20
2018-08-17T00:45:06.195Z,83.20
2018-08-17T00:47:34.610Z,83.20
2018-08-17T00:50:03.144Z,83.20
2018-08-17T00:52:31.528Z,83.20
2018-08-17T00:55:00.033Z,83.30
2018-08-17T00:57:28.949Z,83.40
2018-08-17T00:59:57.455Z,83.50
2018-08-17T01:02:25.974Z,83.60
2018-08-17T01:04:54.459Z,83.70
2018-08-17T01:07:22.822Z,83.90
2018-08-17T01:09:51.199Z,83.80
2018-08-17T01:12:19.712Z,83.90
2018-08-17T01:14:48.087Z,83.90
2018-08-17T01:17:16.446Z,84.10
2018-08-17T01:19:44.815Z,84.20
2018-08-17T01:22:13.173Z,84.40
2018-08-17T01:24:41.555Z,84.30
2018-08-17T01:27:09.928Z,84.40
2018-08-17T01:29:38.291Z,84.40
2018-08-17T01:32:06.734Z,84.30
2018-08-17T01:34:35.095Z,84.40
2018-08-17T01:37:03.460Z,84.50
2018-08-17T01:39:31.830Z,84.60
2018-08-17T01:42:00.187Z,84.60
2018-08-17T01:44:28.638Z,84.70
2018-08-17T01:46:57.071Z,84.60
2018-08-17T01:49:25.491Z,84.60
2018-08-17T01:51:53.835Z,84.50
2018-08-17T01:54:22.200Z,84.20
2018-08-17T01:56:50.689Z,84.10
2018-08-17T01:59:19.083Z,83.90
2018-08-17T02:01:47.672Z,83.90
2018-08-17T02:04:16.043Z,84.00
2018-08-17T02:06:44.397Z,84.30
2018-08-17T02:09:13.014Z,84.50
2018-08-17T02:11:47.628Z,84.70
2018-08-17T02:14:16.007Z,84.80
2018-08-17T02:16:44.351Z,85.10
2018-08-17T02:19:13.669Z,85.20
2018-08-17T02:21:42.035Z,85.30
2018-08-17T02:24:10.432Z,85.40
2018-08-17T02:26:38.807Z,85.40
2018-08-17T02:29:07.227Z,85.40
2018-08-17T02:31:35.577Z,85.40
2018-08-17T02:34:03.943Z,85.50
2018-08-17T02:36:32.285Z,85.40
2018-08-17T02:39:00.644Z,85.40
2018-08-17T02:41:28.988Z,85.30
2018-08-17T02:43:57.363Z,85.40
2018-08-17T02:46:25.695Z,84.80
2018-08-17T02:48:54.263Z,84.70
2018-08-17T02:51:22.658Z,84.50
2018-08-17T02:53:51.079Z,83.90
2018-08-17T02:56:19.419Z,83.60
2018-08-17T02:58:47.778Z,83.20
2018-08-17T03:01:16.144Z,82.90
2018-08-17T03:03:44.487Z,83.00
2018-08-17T03:06:12.859Z,83.20
2018-08-17T03:08:41.220Z,83.30
2018-08-17T03:11:09.599Z,83.40
2018-08-17T03:13:37.943Z,83.20
2018-08-17T03:16:06.413Z,83.20
2018-08-17T03:18:34.762Z,83.30
2018-08-17T03:21:03.219Z,83.20
2018-08-17T03:23:31.567Z,83.10
2018-08-17T03:25:59.967Z,83.20
2018-08-17T03:28:28.331Z,83.50
2018-08-17T03:30:56.699Z,83.20
2018-08-17T03:33:25.052Z,83.00
2018-08-17T03:35:53.448Z,83.50
2018-08-17T03:38:21.819Z,83.60
2018-08-17T03:40:50.468Z,83.80
2018-08-17T03:43:18.885Z,83.70
2018-08-17T03:45:47.242Z,83.80
2018-08-17T03:48:15.614Z,83.90
2018-08-17T03:50:44.023Z,84.50
2018-08-17T03:53:12.371Z,85.10
2018-08-17T03:55:40.732Z,85.50
2018-08-17T03:58:09.083Z,85.70
2018-08-17T04:00:37.463Z,85.90
2018-08-17T04:03:05.843Z,86.10
2018-08-17T04:05:34.207Z,86.30
2018-08-17T04:08:02.589Z,86.70
2018-08-17T04:10:31.017Z,87.10
2018-08-17T04:12:59.381Z,87.40
2018-08-17T04:15:27.862Z,87.70
2018-08-17T04:17:56.147Z,87.90
2018-08-17T04:20:24.510Z,88.10
2018-08-17T04:22:52.850Z,88.10
2018-08-17T04:25:21.437Z,88.00
2018-08-17T04:27:50.043Z,88.00
2018-08-17T04:30:18.422Z,88.00
2018-08-17T04:32:46.771Z,87.80
2018-08-17T04:35:15.153Z,87.70
2018-08-17T04:37:43.758Z,88.00
2018-08-17T04:40:12.835Z,88.40
2018-08-17T04:42:42.059Z,88.40
2018-08-17T04:45:10.459Z,88.60
2018-08-17T04:47:38.996Z,88.80
2018-08-17T04:50:08.690Z,88.70
2018-08-17T04:52:37.439Z,89.10
2018-08-17T04:55:06.171Z,89.30
2018-08-17T04:57:34.710Z,89.30
2018-08-17T05:00:04.395Z,89.40
2018-08-17T05:02:33.311Z,89.20
2018-08-17T05:05:02.005Z,89.10
2018-08-17T05:07:31.258Z,89.10
2018-08-17T05:10:01.007Z,89.20
2018-08-17T05:12:29.389Z,89.60
2018-08-17T05:14:57.838Z,89.70
2018-08-17T05:17:26.256Z,89.70
2018-08-17T05:19:55.078Z,89.80
2018-08-17T05:22:24.163Z,90.00
2018-08-17T05:24:52.562Z,90.10
2018-08-17T05:27:22.991Z,90.20
2018-08-17T05:29:52.300Z,90.00
2018-08-17T05:32:20.779Z,89.90
2018-08-17T05:34:49.151Z,89.70
2018-08-17T05:37:17.589Z,89.90
2018-08-17T05:39:45.959Z,89.50
2018-08-17T05:42:14.352Z,89.40
2018-08-17T05:44:42.748Z,89.10
2018-08-17T05:47:11.132Z,88.80
2018-08-17T05:49:39.582Z,88.80
2018-08-17T05:52:07.998Z,88.40
2018-08-17T05:54:36.358Z,88.20
2018-08-17T05:57:04.781Z,87.80
2018-08-17T05:59:33.147Z,87.80
2018-08-17T06:02:01.842Z,87.50
2018-08-17T06:04:30.207Z,87.50
2018-08-17T06:06:58.671Z,87.00
2018-08-17T06:09:27.067Z,86.70
2018-08-17T06:11:55.451Z,86.30
2018-08-17T06:14:23.819Z,86.20
2018-08-17T06:16:52.215Z,85.80
2018-08-17T06:19:20.598Z,85.40
2018-08-17T06:21:49.011Z,85.20
2018-08-17T06:24:17.395Z,85.20
2018-08-17T06:26:45.819Z,85.50
2018-08-17T06:29:14.183Z,85.30
2018-08-17T06:31:42.551Z,85.50
2018-08-17T06:34:10.922Z,85.10
2018-08-17T06:36:39.304Z,85.00
2018-08-17T06:39:09.823Z,85.10
2018-08-17T06:41:43.895Z,85.30
2018-08-17T06:44:12.301Z,86.80
2018-08-17T06:46:40.679Z,85.90
2018-08-17T06:49:09.051Z,88.30
2018-08-17T06:51:37.386Z,89.50
2018-08-17T06:54:05.991Z,90.70
2018-08-17T06:56:34.327Z,91.70
2018-08-17T06:59:02.718Z,90.40
2018-08-17T07:01:31.099Z,91.40
2018-08-17T07:03:59.507Z,90.60
2018-08-17T07:06:27.895Z,91.50
2018-08-17T07:08:56.304Z,91.70
2018-08-17T07:11:24.616Z,92.50
2018-08-17T07:13:52.952Z,92.70
2018-08-17T07:16:21.306Z,93.10
2018-08-17T07:18:49.900Z,92.70
2018-08-17T07:21:18.266Z,94.00
2018-08-17T07:23:46.609Z,95.20
2018-08-17T07:26:15.030Z,94.70
2018-08-17T07:28:43.387Z,94.90
2018-08-17T07:31:11.798Z,95.10
2018-08-17T07:33:40.243Z,95.50
2018-08-17T07:36:08.619Z,96.20
2018-08-17T07:38:36.971Z,96.40
2018-08-17T07:41:05.390Z,96.60
2018-08-17T07:43:33.753Z,97.10
2018-08-17T07:46:02.131Z,96.40
2018-08-17T07:48:30.891Z,96.80
2018-08-17T07:50:59.329Z,94.80
2018-08-17T07:53:27.826Z,95.10
2018-08-17T07:55:56.264Z,95.20
2018-08-17T07:58:24.668Z,95.80
2018-08-17T08:00:53.069Z,95.00
2018-08-17T08:03:21.455Z,95.50
2018-08-17T08:05:49.895Z,95.40
2018-08-17T08:08:18.253Z,95.80
2018-08-17T08:10:46.639Z,95.60
2018-08-17T08:13:15.000Z,95.30
2018-08-17T08:15:43.382Z,95.30
2018-08-17T08:18:11.830Z,94.70
2018-08-17T08:20:42.486Z,95.40
2018-08-17T08:23:26.045Z,95.70
2018-08-17T08:25:54.885Z,95.70
2018-08-17T08:28:23.463Z,94.10
2018-08-17T08:30:51.891Z,93.30
2018-08-17T08:33:20.574Z,93.60
2018-08-17T08:35:49.611Z,94.20
2018-08-17T08:38:18.307Z,92.80
2018-08-17T08:40:47.291Z,92.60
2018-08-17T08:43:15.735Z,93.60
2018-08-17T08:45:44.220Z,94.50
2018-08-17T08:48:12.611Z,93.80
2018-08-17T08:50:41.003Z,91.90
2018-08-17T08:53:09.886Z,89.90
2018-08-17T08:55:38.388Z,88.60
2018-08-17T08:58:06.836Z,89.60
2018-08-17T09:00:35.208Z,89.40
2018-08-17T09:03:03.613Z,89.40
2018-08-17T09:05:31.978Z,89.40
2018-08-17T09:08:00.560Z,91.40
2018-08-17T09:10:28.939Z,91.20
2018-08-17T09:12:57.352Z,91.10
2018-08-17T09:15:25.690Z,89.90
2018-08-17T09:17:54.072Z,91.60
2018-08-17T09:20:24.415Z,91.80
2018-08-17T09:22:52.834Z,90.60
2018-08-17T09:25:21.175Z,90.90
2018-08-17T09:27:49.535Z,90.70
2018-08-17T09:30:18.016Z,91.10
2018-08-17T09:32:46.295Z,91.20
2018-08-17T09:35:14.723Z,91.30
2018-08-17T09:37:43.134Z,91.20
2018-08-17T09:40:12.010Z,91.80
2018-08-17T09:42:40.391Z,92.30
2018-08-17T09:45:10.360Z,91.40
2018-08-17T09:47:38.743Z,91.00
2018-08-17T09:50:09.211Z,92.20
2018-08-17T09:52:37.746Z,90.40
2018-08-17T09:55:06.163Z,91.40
2018-08-17T09:57:34.641Z,90.20
2018-08-17T10:00:03.551Z,89.10
2018-08-17T10:02:37.327Z,88.40
2018-08-17T10:05:11.003Z,88.70
2018-08-17T10:07:44.855Z,87.60
2018-08-17T10:10:17.283Z,88.10
2018-08-17T10:12:46.375Z,86.60
2018-08-17T10:15:14.775Z,86.50
2018-08-17T10:17:43.167Z,86.10
2018-08-17T10:20:14.821Z,87.00
2018-08-17T10:22:43.375Z,85.10
2018-08-17T10:25:15.495Z,85.10
2018-08-17T10:27:45.000Z,85.00
2018-08-17T10:30:13.363Z,84.80
2018-08-17T10:33:12.784Z,85.20
2018-08-17T10:35:41.143Z,85.50
2018-08-17T10:38:09.555Z,85.80
2018-08-17T10:40:38.015Z,86.00
2018-08-17T10:43:06.995Z,85.10
2018-08-17T10:45:41.651Z,86.40
2018-08-17T10:48:10.079Z,86.20
2018-08-17T10:50:39.161Z,86.20
2018-08-17T10:53:07.571Z,85.90
2018-08-17T10:55:42.171Z,86.20
2018-08-17T10:58:12.589Z,86.30
2018-08-17T11:00:40.983Z,85.60
2018-08-17T11:03:09.732Z,86.10
2018-08-17T11:05:38.131Z,86.60
2018-08-17T11:08:06.670Z,86.50
2018-08-17T11:10:35.206Z,86.90
2018-08-17T11:13:03.696Z,87.00
2018-08-17T11:15:32.135Z,86.60
2018-08-17T11:18:00.583Z,87.10
2018-08-17T11:20:29.997Z,86.50
2018-08-17T11:23:04.987Z,86.40
2018-08-17T11:25:33.387Z,85.60
2018-08-17T11:28:01.760Z,85.80
2018-08-17T11:30:36.714Z,85.50
2018-08-17T11:33:05.142Z,84.20
2018-08-17T11:35:33.567Z,84.00
2018-08-17T11:38:01.968Z,83.20
2018-08-17T11:40:30.683Z,82.70
2018-08-17T11:42:59.075Z,83.30
2018-08-17T11:45:27.822Z,83.70
2018-08-17T11:47:57.452Z,83.60
2018-08-17T11:50:26.896Z,82.10
2018-08-17T11:52:58.464Z,81.50
2018-08-17T11:55:28.406Z,82.40
2018-08-17T11:57:56.844Z,83.10
2018-08-17T12:00:25.541Z,83.40
2018-08-17T12:02:54.272Z,82.60
2018-08-17T12:05:22.664Z,80.60
2018-08-17T12:07:51.003Z,79.70
2018-08-17T12:10:19.397Z,80.20
2018-08-17T12:12:47.763Z,80.50
2018-08-17T12:15:16.675Z,79.40
2018-08-17T12:17:45.047Z,79.40
2018-08-17T12:20:13.426Z,79.40
2018-08-17T12:22:41.768Z,79.30
2018-08-17T12:25:10.681Z,80.10
2018-08-17T12:27:40.358Z,80.30
2018-08-17T12:30:09.247Z,79.90
2018-08-17T12:32:37.599Z,80.00
2018-08-17T12:35:06.024Z,80.30
2018-08-17T12:37:34.983Z,80.00
2018-08-17T12:40:04.281Z,80.50
2018-08-17T12:42:35.699Z,79.40
2018-08-17T12:45:09.629Z,78.80
2018-08-17T12:47:37.998Z,78.80
2018-08-17T12:50:06.831Z,78.10
2018-08-17T12:52:35.937Z,78.50
2018-08-17T12:55:05.270Z,78.40
2018-08-17T12:57:38.804Z,77.80
2018-08-17T13:00:07.219Z,77.70
2018-08-17T13:02:35.722Z,77.60
2018-08-17T13:05:04.159Z,79.00
2018-08-17T13:07:32.526Z,79.80
2018-08-17T13:10:01.111Z,80.20
2018-08-17T13:12:29.539Z,80.90
2018-08-17T13:14:57.903Z,81.00
2018-08-17T13:17:32.096Z,81.20
2018-08-17T13:20:00.788Z,81.80
2018-08-17T13:22:29.208Z,82.10
2018-08-17T13:24:57.571Z,82.10
2018-08-17T13:27:26.399Z,82.90
2018-08-17T13:29:54.879Z,82.60
2018-08-17T13:32:23.580Z,80.80
2018-08-17T13:34:52.223Z,81.90
2018-08-17T13:37:20.606Z,81.70
2018-08-17T13:39:48.964Z,82.40
2018-08-17T13:42:17.474Z,81.40
2018-08-17T13:44:46.444Z,81.60
2018-08-17T13:47:14.862Z,81.10
2018-08-17T13:49:44.024Z,81.30
2018-08-17T13:52:12.669Z,80.60
2018-08-17T13:54:41.037Z,80.50
2018-08-17T13:57:09.399Z,80.20
2018-08-17T13:59:37.756Z,81.00
2018-08-17T14:02:06.196Z,81.30
2018-08-17T14:04:34.574Z,80.30
2018-08-17T14:07:03.761Z,79.30
2018-08-17T14:09:32.400Z,77.60
2018-08-17T14:12:00.828Z,78.50
2018-08-17T14:14:29.219Z,78.30
2018-08-17T14:16:57.787Z,78.10
2018-08-17T14:19:26.589Z,77.70
2018-08-17T14:21:55.339Z,77.00
2018-08-17T14:24:23.906Z,76.70
2018-08-17T14:26:52.287Z,76.20
2018-08-17T14:29:21.412Z,76.10
2018-08-17T14:31:49.976Z,76.60
2018-08-17T14:34:18.388Z,76.60
2018-08-17T14:36:47.016Z,76.90
2018-08-17T14:39:15.395Z,77.20
2018-08-17T14:41:55.333Z,77.20
2018-08-17T14:44:24.767Z,76.80
2018-08-17T14:46:53.973Z,76.50
2018-08-17T14:49:23.393Z,76.30
2018-08-17T14:51:55.705Z,76.30
2018-08-17T14:54:24.062Z,76.20
2018-08-17T14:56:52.406Z,76.40
2018-08-17T14:59:20.795Z,75.80
2018-08-17T15:01:49.131Z,76.50
2018-08-17T15:04:17.618Z,76.60
2018-08-17T15:06:46.735Z,75.60
2018-08-17T15:09:15.328Z,75.80
2018-08-17T15:11:44.444Z,75.90
2018-08-17T15:14:14.178Z,75.70
2018-08-17T15:16:43.243Z,75.60
2018-08-17T15:19:11.784Z,74.90
2018-08-17T15:21:40.399Z,74.40
2018-08-17T15:24:09.078Z,75.30
2018-08-17T15:26:37.679Z,74.90
2018-08-17T15:29:06.722Z,74.70
2018-08-17T15:31:35.156Z,75.60
2018-08-17T15:34:03.575Z,76.20
2018-08-17T15:36:31.942Z,76.10
2018-08-17T15:39:00.390Z,76.50
2018-08-17T15:41:29.901Z,76.50
2018-08-17T15:43:58.165Z,76.60
2018-08-17T15:46:26.943Z,75.70
2018-08-17T15:48:56.930Z,75.40
2018-08-17T15:51:25.773Z,74.60
2018-08-17T15:53:54.837Z,75.50
2018-08-17T15:56:23.270Z,74.70
2018-08-17T15:58:51.635Z,74.60
2018-08-17T16:01:20.155Z,74.30
2018-08-17T16:03:48.523Z,73.60
2018-08-17T16:06:17.235Z,72.00
2018-08-17T16:08:46.041Z,70.70
2018-08-17T16:11:14.920Z,70.70
2018-08-17T16:13:44.161Z,70.00
2018-08-17T16:16:12.904Z,70.60
2018-08-17T16:18:41.279Z,69.20
2018-08-17T16:21:09.643Z,66.80
2018-08-17T16:23:38.051Z,66.20
2018-08-17T16:26:06.428Z,66.40
2018-08-17T16:28:34.767Z,67.00
2018-08-17T16:31:03.163Z,67.30
2018-08-17T16:33:31.551Z,67.60
2018-08-17T16:36:00.073Z,67.80
2018-08-17T16:38:28.499Z,67.40
2018-08-17T16:40:56.851Z,67.50
2018-08-17T16:43:36.676Z,67.40
2018-08-17T16:46:05.139Z,67.50
2018-08-17T16:48:33.475Z,67.70
2018-08-17T16:51:01.881Z,68.00
2018-08-17T16:53:30.235Z,67.10
2018-08-17T16:55:58.599Z,66.90
2018-08-17T16:58:26.950Z,66.80
2018-08-17T17:00:55.408Z,67.60
2018-08-17T17:03:23.711Z,67.70
2018-08-17T17:05:56.307Z,67.80
2018-08-17T17:08:24.660Z,67.70
2018-08-17T17:10:53.038Z,68.50
2018-08-17T17:13:21.384Z,68.80
2018-08-17T17:15:49.766Z,68.40
2018-08-17T17:18:18.153Z,68.50
2018-08-17T17:20:46.745Z,68.70
2018-08-17T17:23:15.039Z,68.60
2018-08-17T17:25:43.407Z,68.30
2018-08-17T17:28:11.752Z,68.90
2018-08-17T17:30:53.333Z,68.60
2018-08-17T17:33:24.959Z,68.20
2018-08-17T17:35:53.371Z,67.90
2018-08-17T17:38:21.765Z,67.80
2018-08-17T17:40:50.191Z,67.80
2018-08-17T17:43:18.824Z,67.60
2018-08-17T17:45:47.203Z,67.30
2018-08-17T17:48:15.550Z,66.90
2018-08-17T17:50:43.950Z,67.10
2018-08-17T17:53:12.306Z,67.20
2018-08-17T17:55:45.755Z,67.20
2018-08-17T17:58:14.487Z,66.70
2018-08-17T18:00:52.756Z,67.20
2018-08-17T18:03:21.107Z,67.50
2018-08-17T18:05:49.470Z,67.10
2018-08-17T18:08:17.893Z,67.40
2018-08-17T18:10:46.702Z,67.70
2018-08-17T18:13:15.075Z,68.30
2018-08-17T18:15:43.587Z,68.10
2018-08-17T18:18:11.956Z,67.90
2018-08-17T18:20:41.250Z,68.40
2018-08-17T18:23:09.838Z,68.60
2018-08-17T18:25:38.215Z,69.00
2018-08-17T18:28:06.820Z,69.30
2018-08-17T18:30:35.287Z,70.10
2018-08-17T18:33:03.727Z,70.70
2018-08-17T18:35:32.119Z,70.80
2018-08-17T18:38:00.583Z,71.20
2018-08-17T18:40:28.991Z,71.50
2018-08-17T18:42:57.386Z,72.40
2018-08-17T18:45:25.738Z,73.50
2018-08-17T18:47:54.126Z,73.90
2018-08-17T18:50:22.522Z,74.40
2018-08-17T18:52:51.047Z,74.60
2018-08-17T18:55:19.380Z,73.90
2018-08-17T18:57:47.891Z,74.80
2018-08-17T19:00:16.279Z,75.30
2018-08-17T19:02:44.674Z,75.60
2018-08-17T19:05:13.221Z,75.80
2018-08-17T19:07:41.632Z,75.90
2018-08-17T19:10:10.882Z,76.10
2018-08-17T19:12:39.683Z,76.40
2018-08-17T19:15:11.771Z,76.80
2018-08-17T19:17:40.628Z,77.40
2018-08-17T19:20:10.491Z,77.50
2018-08-17T19:22:40.774Z,77.60
2018-08-17T19:25:10.344Z,78.00
2018-08-17T19:27:39.635Z,78.20
2018-08-17T19:30:23.954Z,78.20
2018-08-17T19:32:54.551Z,78.40
2018-08-17T19:35:23.597Z,78.90
2018-08-17T19:37:53.281Z,79.20
2018-08-17T19:40:22.412Z,79.10
2018-08-17T19:42:50.849Z,80.00
2018-08-17T19:45:19.886Z,80.20
2018-08-17T19:47:48.479Z,80.50
2018-08-17T19:50:16.863Z,80.20
2018-08-17T19:52:45.303Z,80.20
2018-08-17T19:55:13.879Z,79.80
2018-08-17T19:57:42.270Z,80.40
2018-08-17T20:00:11.703Z,80.80
2018-08-17T20:02:40.391Z,80.60
2018-08-17T20:05:09.023Z,80.80
2018-08-17T20:07:38.348Z,81.20
2018-08-17T20:10:07.768Z,81.50
2018-08-17T20:12:36.231Z,81.50
2018-08-17T20:15:05.823Z,81.70
2018-08-17T20:17:34.255Z,82.00
2018-08-17T20:20:02.663Z,82.40
2018-08-17T20:22:31.075Z,82.70
2018-08-17T20:24:59.503Z,82.80
2018-08-17T20:27:28.213Z,82.70
2018-08-17T20:30:05.282Z,82.90
2018-08-17T20:32:33.827Z,83.20
2018-08-17T20:35:02.207Z,83.60
2018-08-17T20:37:30.635Z,83.70
2018-08-17T20:39:59.058Z,83.30
2018-08-17T20:42:28.669Z,83.20
2018-08-17T20:44:57.063Z,83.20
2018-08-17T20:47:25.531Z,83.00
2018-08-17T20:49:53.927Z,82.80
2018-08-17T20:52:22.303Z,82.70
2018-08-17T20:54:50.729Z,82.60
2018-08-17T20:57:19.188Z,82.60
2018-08-17T20:59:47.683Z,82.90
2018-08-17T21:02:16.043Z,83.10
2018-08-17T21:04:45.387Z,83.30
2018-08-17T21:07:13.881Z,83.80
2018-08-17T21:09:42.364Z,84.30
2018-08-17T21:12:10.753Z,84.50
2018-08-17T21:14:39.141Z,84.30
2018-08-17T21:17:07.606Z,84.10
2018-08-17T21:19:40.122Z,83.80
2018-08-17T21:22:09.738Z,83.90
2018-08-17T21:24:38.151Z,83.70
2018-08-17T21:27:06.519Z,83.60
2018-08-17T21:29:34.995Z,83.60
2018-08-17T21:32:03.331Z,83.60
2018-08-17T21:34:32.355Z,83.70
2018-08-17T21:37:00.782Z,83.70
2018-08-17T21:39:29.183Z,83.80
2018-08-17T21:41:57.583Z,83.70
2018-08-17T21:44:25.968Z,84.70
2018-08-17T21:46:59.740Z,84.50
2018-08-17T21:49:28.151Z,84.50
2018-08-17T21:51:58.888Z,84.70
2018-08-17T21:54:29.178Z,84.90
2018-08-17T21:56:57.803Z,85.30
2018-08-17T21:59:32.876Z,85.30
2018-08-17T22:02:02.253Z,85.30
2018-08-17T22:04:30.720Z,85.60
2018-08-17T22:07:01.784Z,85.60
2018-08-17T22:09:37.124Z,85.30
2018-08-17T22:12:06.163Z,85.40
2018-08-17T22:14:35.133Z,85.80
2018-08-17T22:17:04.294Z,85.90
2018-08-17T22:19:37.504Z,85.90
2018-08-17T22:22:07.214Z,86.00
2018-08-17T22:25:10.617Z,85.80
2018-08-17T22:27:39.287Z,85.90
2018-08-17T22:30:17.785Z,86.30
2018-08-17T22:32:46.087Z,85.90
2018-08-17T22:35:14.556Z,85.90
2018-08-17T22:37:42.963Z,86.10
2018-08-17T22:40:11.435Z,86.40
2018-08-17T22:42:39.794Z,86.40
2018-08-17T22:45:08.179Z,86.30
2018-08-17T22:47:36.558Z,86.30
2018-08-17T22:50:05.267Z,86.10
2018-08-17T22:52:34.681Z,86.00
2018-08-17T22:55:04.609Z,86.10
2018-08-17T22:57:33.154Z,86.10
2018-08-17T23:00:28.262Z,86.10
2018-08-17T23:02:58.909Z,86.10
2018-08-17T23:05:29.068Z,86.00
2018-08-17T23:07:57.455Z,86.20
2018-08-17T23:10:26.883Z,86.30
2018-08-17T23:12:56.063Z,86.60
2018-08-17T23:15:24.526Z,86.70
2018-08-17T23:17:54.904Z,86.60
2018-08-17T23:20:28.605Z,86.50
2018-08-17T23:22:58.239Z,86.50
2018-08-17T23:25:26.659Z,86.90
2018-08-17T23:27:55.146Z,87.20
2018-08-17T23:30:23.615Z,87.20
2018-08-17T23:32:52.104Z,87.00
2018-08-17T23:35:20.523Z,87.30
2018-08-17T23:37:48.938Z,87.50
2018-08-17T23:40:17.337Z,87.00
2018-08-17T23:42:45.711Z,87.30
2018-08-17T23:45:15.400Z,87.50
2018-08-17T23:47:43.924Z,88.10
2018-08-17T23:50:13.339Z,88.60
2018-08-17T23:52:42.187Z,88.30
2018-08-17T23:55:12.429Z,88.10
2018-08-17T23:57:40.806Z,88.30
